»·PEaware :: SKW5972 KDEN-KLBF

SKW5972 :: KDEN-KLBF

FLIGHT INFORMATION

Flight Status: Arrived
Operator:
SkyWest Airlines
More flights by this operator :: More flights under this callsign
Pilot: Jack B. (5846)
Aircraft: CANADAIR CL-600 CRJ-200
(CRJ2)
More flights by this aircraft type
Origin: KDEN Denver Intl
United States
Destination: KLBF North Platte Regl-Bird
United States
More flights between these airports :: More routes between these airports
Route: +EEONS6 WYNDM LBF
File this flight plan on PilotEdge
Remarks:
Altitude:
(Current/Filed)
250ft
Speed:
(Current/Filed)
320kts
Departed: 08-Jan-19 03:51 PM
Arrived: 08-Jan-19 04:26 PM
Distance/Time
Traveled:
197nm/0:34
Distance/Time
To Go:
Arrived

Flight Plot

Page will automatically refresh every two minutes.

Flight plan parsing failed; only flown route is shown


Map Options




Map Legend


Flown Route
Filed Route
Departure Airport
Arrival Airport
Navaid (VOR, NDB)
Fix

Horizontal Profiles

Position Reports

Time Latitude Longitude Heading Altitude Ground
Speed
08-Jan-19 15:38 39.859379 -104.665617 179 5436ft 0kts
08-Jan-19 15:39 39.859379 -104.665617 179 5436ft 0kts
08-Jan-19 15:40 39.859379 -104.665617 179 5436ft 0kts
08-Jan-19 15:41 39.859379 -104.665617 179 5436ft 0kts
08-Jan-19 15:42 39.859522 -104.665617 179 5436ft 0kts
08-Jan-19 15:43 39.859635 -104.665618 179 5436ft 0kts
08-Jan-19 15:44 39.859635 -104.665618 179 5436ft 0kts
08-Jan-19 15:45 39.860175 -104.664597 92 5436ft 7kts
08-Jan-19 15:46 39.860156 -104.663363 89 5436ft 17kts
08-Jan-19 15:47 39.864679 -104.662259 0 5436ft 24kts
08-Jan-19 15:48 39.870708 -104.662204 0 5436ft 23kts
08-Jan-19 15:49 39.877521 -104.661539 84 5436ft 21kts
08-Jan-19 15:50 39.877147 -104.619382 86 6441ft 159kts
08-Jan-19 15:51 39.884467 -104.553246 70 8214ft 218kts
08-Jan-19 15:52 39.903541 -104.466110 70 10019ft 282kts
08-Jan-19 15:53 39.926746 -104.361292 71 12367ft 312kts
08-Jan-19 15:54 39.950933 -104.250495 70 14778ft 326kts
08-Jan-19 15:55 39.973958 -104.132695 77 16655ft 351kts
08-Jan-19 15:56 39.988577 -104.001978 78 18197ft 376kts
08-Jan-19 15:57 40.006420 -103.865494 75 19855ft 387kts
08-Jan-19 15:58 40.028867 -103.726158 74 21297ft 400kts
08-Jan-19 15:59 40.052348 -103.582596 74 22634ft 410kts
08-Jan-19 16:00 40.076243 -103.435371 74 23844ft 419kts
08-Jan-19 16:01 40.100404 -103.285220 74 24953ft 429kts
08-Jan-19 16:02 40.125696 -103.126526 74 25052ft 463kts
08-Jan-19 16:03 40.152225 -102.958477 73 25053ft 493kts
08-Jan-19 16:04 40.180762 -102.778391 74 24736ft 515kts
08-Jan-19 16:05 40.208971 -102.596086 74 24216ft 512kts
08-Jan-19 16:06 40.237003 -102.412722 74 24118ft 512kts
08-Jan-19 16:07 40.264255 -102.232577 74 24076ft 508kts
08-Jan-19 16:08 40.291358 -102.051256 74 23371ft 495kts
08-Jan-19 16:09 40.317536 -101.874877 74 21989ft 493kts
08-Jan-19 16:10 40.343185 -101.701606 75 20431ft 485kts
08-Jan-19 16:11 40.367566 -101.533107 75 18852ft 463kts
08-Jan-19 16:12 40.419689 -101.389494 32 17323ft 420kts
08-Jan-19 16:13 40.510201 -101.296109 30 15936ft 413kts
08-Jan-19 16:14 40.600227 -101.204996 31 14657ft 409kts
08-Jan-19 16:15 40.689151 -101.114716 31 13385ft 395kts
08-Jan-19 16:16 40.775221 -101.027122 31 12117ft 397kts
08-Jan-19 16:17 40.857962 -100.942719 30 11010ft 358kts
08-Jan-19 16:18 40.925097 -100.866225 33 9672ft 284kts
08-Jan-19 16:19 40.972499 -100.794882 65 8331ft 258kts
08-Jan-19 16:20 40.993878 -100.711448 45 7217ft 204kts
08-Jan-19 16:21 41.026230 -100.655776 43 6240ft 182kts
08-Jan-19 16:22 41.063556 -100.621580 358 4617ft 160kts
08-Jan-19 16:23 41.099966 -100.635975 320 3558ft 128kts
08-Jan-19 16:24 41.122431 -100.672359 309 2768ft 112kts
08-Jan-19 16:25 41.131313 -100.688592 306 2774ft 34kts
08-Jan-19 16:26 41.131180 -100.692016 269 2775ft 2kts
08-Jan-19 16:27 41.132353 -100.696375 269 2779ft 0kts
08-Jan-19 16:28 41.132353 -100.696375 269 2779ft 0kts

Navigation Log

Ident Type
Flight plan parsing failed, navigation log unavailable